createdAt,value
2023-08-07T00:00:57.798Z,91.94
2023-08-07T00:03:27.129Z,91.49
2023-08-07T00:05:58.256Z,91.39
2023-08-07T00:08:27.284Z,91.67
2023-08-07T00:11:08.510Z,91.78
2023-08-07T00:13:37.139Z,91.60
2023-08-07T00:16:04.941Z,91.77
2023-08-07T00:18:34.767Z,91.90
2023-08-07T00:21:04.642Z,91.40
2023-08-07T00:23:33.754Z,92.04
2023-08-07T00:26:04.374Z,92.33
2023-08-07T00:28:32.998Z,91.88
2023-08-07T00:31:00.904Z,92.33
2023-08-07T00:33:30.857Z,92.49
2023-08-07T00:35:58.817Z,92.22
2023-08-07T00:38:28.636Z,92.34
2023-08-07T00:40:58.859Z,92.69
2023-08-07T00:43:27.640Z,92.44
2023-08-07T00:45:55.914Z,93.03
2023-08-07T00:48:24.854Z,92.78
2023-08-07T00:50:54.969Z,93.09
2023-08-07T00:53:24.306Z,93.37
2023-08-07T00:55:52.034Z,92.81
2023-08-07T00:58:20.726Z,93.23
2023-08-07T01:00:48.434Z,93.55
2023-08-07T01:03:16.399Z,93.21
2023-08-07T01:05:45.004Z,92.81
2023-08-07T01:08:16.052Z,92.79
2023-08-07T01:11:08.096Z,93.06
2023-08-07T01:14:09.039Z,92.35
2023-08-07T01:16:41.637Z,91.95
2023-08-07T01:19:26.377Z,92.57
2023-08-07T01:22:14.362Z,92.41
2023-08-07T01:24:47.529Z,92.17
2023-08-07T01:27:14.969Z,92.58
2023-08-07T01:30:14.630Z,92.53
2023-08-07T01:33:17.565Z,92.42
2023-08-07T01:35:52.694Z,92.53
2023-08-07T01:38:25.586Z,92.63
2023-08-07T01:40:55.070Z,92.79
2023-08-07T01:43:23.777Z,92.41
2023-08-07T01:45:53.974Z,92.21
2023-08-07T01:48:25.934Z,92.59
2023-08-07T01:50:54.639Z,91.48
2023-08-07T01:53:25.929Z,92.23
2023-08-07T01:55:54.516Z,92.85
2023-08-07T01:58:22.144Z,92.55
2023-08-07T02:00:53.694Z,91.09
2023-08-07T02:03:21.570Z,91.92
2023-08-07T02:05:50.762Z,91.88
2023-08-07T02:08:18.944Z,92.51
2023-08-07T02:10:50.571Z,92.46
2023-08-07T02:13:18.648Z,92.61
2023-08-07T02:15:46.426Z,92.06
2023-08-07T02:18:17.861Z,92.21
2023-08-07T02:20:47.194Z,91.66
2023-08-07T02:23:15.563Z,91.68
2023-08-07T02:25:43.264Z,91.77
2023-08-07T02:28:11.849Z,91.98
2023-08-07T02:30:39.582Z,91.78
2023-08-07T02:33:10.283Z,90.82
2023-08-07T02:35:37.838Z,92.02
2023-08-07T02:38:05.364Z,92.04
2023-08-07T02:40:33.517Z,91.80
2023-08-07T02:43:02.708Z,91.09
2023-08-07T02:45:34.973Z,91.14
2023-08-07T02:48:04.840Z,91.44
2023-08-07T02:50:37.531Z,92.35
2023-08-07T02:53:05.050Z,92.14
2023-08-07T02:55:32.959Z,91.32
2023-08-07T02:58:00.635Z,92.58
2023-08-07T03:00:29.249Z,91.69
2023-08-07T03:02:58.058Z,92.04
2023-08-07T03:05:26.879Z,92.42
2023-08-07T03:07:55.413Z,92.31
2023-08-07T03:10:26.837Z,91.36
2023-08-07T03:12:55.510Z,91.99
2023-08-07T03:15:23.537Z,91.81
2023-08-07T03:17:52.631Z,92.62
2023-08-07T03:20:21.485Z,92.31
2023-08-07T03:22:51.748Z,91.93
2023-08-07T03:25:19.877Z,92.24
2023-08-07T03:27:48.418Z,92.42
2023-08-07T03:30:16.887Z,92.45
2023-08-07T03:32:47.169Z,92.34
2023-08-07T03:35:17.547Z,92.31
2023-08-07T03:37:45.760Z,92.46
2023-08-07T03:40:13.342Z,91.77
2023-08-07T03:42:42.873Z,92.03
2023-08-07T03:45:12.806Z,92.37
2023-08-07T03:47:43.263Z,92.34
2023-08-07T03:50:11.968Z,91.94
2023-08-07T03:52:41.161Z,91.71
2023-08-07T03:55:10.328Z,91.96
2023-08-07T03:57:38.044Z,91.67
2023-08-07T04:00:08.510Z,91.20
2023-08-07T04:02:43.027Z,91.07
2023-08-07T04:05:14.615Z,91.64
2023-08-07T04:07:45.840Z,91.74
2023-08-07T04:10:15.121Z,91.27
2023-08-07T04:12:45.317Z,91.15
2023-08-07T04:15:13.016Z,91.70
2023-08-07T04:17:41.157Z,91.78
2023-08-07T04:20:09.710Z,91.96
2023-08-07T04:22:38.792Z,91.67
2023-08-07T04:25:07.705Z,92.18
2023-08-07T04:27:36.389Z,91.71
2023-08-07T04:30:05.339Z,91.29
2023-08-07T04:32:35.857Z,91.79
2023-08-07T04:35:05.578Z,91.73
2023-08-07T04:37:34.350Z,91.40
2023-08-07T04:40:02.976Z,91.38
2023-08-07T04:42:34.078Z,91.56
2023-08-07T04:45:04.778Z,91.75
2023-08-07T04:47:33.679Z,91.89
2023-08-07T04:50:01.674Z,91.89
2023-08-07T04:52:30.140Z,92.71
2023-08-07T04:54:58.592Z,92.37
2023-08-07T04:57:28.855Z,92.31
2023-08-07T04:59:57.892Z,92.32
2023-08-07T05:02:25.821Z,92.05
2023-08-07T05:04:54.351Z,91.78
2023-08-07T05:07:22.766Z,91.93
2023-08-07T05:09:52.002Z,91.80
2023-08-07T05:12:21.205Z,92.16
2023-08-07T05:14:49.745Z,92.45
2023-08-07T05:17:21.768Z,91.18
2023-08-07T05:19:49.521Z,91.81
2023-08-07T05:22:18.688Z,92.16
2023-08-07T05:24:50.956Z,92.06
2023-08-07T05:27:19.779Z,92.25
2023-08-07T05:29:48.469Z,91.97
2023-08-07T05:32:17.774Z,91.74
2023-08-07T05:34:50.880Z,91.77
2023-08-07T05:37:18.595Z,91.87
2023-08-07T05:39:49.731Z,91.97
2023-08-07T05:42:17.852Z,91.11
2023-08-07T05:44:55.971Z,90.84
2023-08-07T05:47:28.420Z,90.67
2023-08-07T05:49:58.110Z,90.74
2023-08-07T05:52:26.619Z,90.79
2023-08-07T05:54:55.243Z,91.08
2023-08-07T05:57:23.202Z,90.72
2023-08-07T05:59:53.524Z,90.86
2023-08-07T06:02:21.917Z,90.14
2023-08-07T06:04:52.324Z,89.50
2023-08-07T06:07:19.810Z,88.07
2023-08-07T06:09:52.211Z,89.96
2023-08-07T06:12:21.135Z,90.16
2023-08-07T06:14:50.094Z,90.37
2023-08-07T06:17:20.506Z,89.83
2023-08-07T06:19:48.159Z,89.70
2023-08-07T06:22:16.599Z,90.13
2023-08-07T06:24:45.817Z,90.31
2023-08-07T06:27:14.407Z,90.24
2023-08-07T06:29:41.904Z,89.75
2023-08-07T06:32:11.819Z,89.80
2023-08-07T06:34:39.621Z,89.87
2023-08-07T06:37:10.611Z,89.26
2023-08-07T06:39:40.469Z,89.58
2023-08-07T06:42:13.479Z,89.68
2023-08-07T06:44:45.504Z,89.50
2023-08-07T06:47:15.879Z,88.45
2023-08-07T06:49:44.985Z,89.33
2023-08-07T06:52:12.559Z,90.29
2023-08-07T06:54:41.323Z,89.99
2023-08-07T06:57:08.932Z,89.95
2023-08-07T06:59:39.780Z,89.17
2023-08-07T07:02:13.523Z,89.13
2023-08-07T07:04:43.178Z,88.88
2023-08-07T07:07:10.801Z,89.05
2023-08-07T07:09:39.027Z,87.85
2023-08-07T07:12:07.028Z,88.21
2023-08-07T07:14:35.260Z,88.86
2023-08-07T07:17:05.619Z,88.60
2023-08-07T07:19:34.690Z,88.30
2023-08-07T07:22:02.205Z,88.02
2023-08-07T07:24:29.715Z,88.57
2023-08-07T07:26:59.736Z,87.47
2023-08-07T07:29:27.665Z,88.00
2023-08-07T07:31:57.124Z,87.10
2023-08-07T07:34:27.641Z,87.98
2023-08-07T07:36:55.799Z,87.47
2023-08-07T07:39:23.602Z,87.15
2023-08-07T07:41:51.208Z,87.55
2023-08-07T07:44:20.054Z,86.83
2023-08-07T07:46:47.851Z,87.28
2023-08-07T07:49:15.657Z,86.74
2023-08-07T07:51:46.784Z,87.03
2023-08-07T07:54:15.574Z,87.03
2023-08-07T07:56:44.706Z,87.47
2023-08-07T07:59:14.848Z,86.48
2023-08-07T08:01:42.538Z,86.48
2023-08-07T08:04:14.027Z,85.91
2023-08-07T08:06:44.793Z,86.80
2023-08-07T08:09:12.556Z,86.26
2023-08-07T08:11:40.865Z,87.03
2023-08-07T08:14:10.828Z,86.98
2023-08-07T08:16:40.985Z,86.72
2023-08-07T08:19:11.060Z,86.50
2023-08-07T08:21:41.664Z,86.13
2023-08-07T08:24:16.246Z,86.03
2023-08-07T08:26:44.963Z,85.66
2023-08-07T08:29:16.275Z,85.18
2023-08-07T08:31:45.475Z,85.46
2023-08-07T08:34:13.202Z,85.58
2023-08-07T08:36:41.590Z,85.31
2023-08-07T08:39:10.442Z,85.02
2023-08-07T08:41:38.415Z,84.69
2023-08-07T08:44:08.274Z,84.63
2023-08-07T08:46:37.605Z,84.10
2023-08-07T08:49:07.153Z,84.01
2023-08-07T08:51:35.008Z,84.42
2023-08-07T08:54:03.917Z,83.21
2023-08-07T08:56:32.846Z,83.79
2023-08-07T08:59:04.028Z,83.17
2023-08-07T09:01:33.990Z,82.75
2023-08-07T09:04:06.936Z,83.25
2023-08-07T09:06:35.416Z,83.41
2023-08-07T09:09:07.535Z,83.20
2023-08-07T09:11:37.323Z,82.95
2023-08-07T09:14:05.554Z,83.06
2023-08-07T09:16:34.998Z,82.76
2023-08-07T09:19:06.052Z,82.60
2023-08-07T09:21:34.889Z,81.89
2023-08-07T09:24:04.091Z,82.35
2023-08-07T09:26:34.884Z,82.12
2023-08-07T09:29:06.115Z,81.94
2023-08-07T09:31:42.090Z,81.27
2023-08-07T09:34:09.820Z,81.44
2023-08-07T09:36:38.623Z,81.44
2023-08-07T09:39:06.788Z,81.81
2023-08-07T09:41:36.426Z,82.97
2023-08-07T09:44:12.291Z,84.03
2023-08-07T09:46:44.271Z,84.54
2023-08-07T09:49:17.289Z,83.09
2023-08-07T09:51:48.254Z,83.05
2023-08-07T09:54:22.761Z,82.58
2023-08-07T09:56:52.396Z,82.49
2023-08-07T09:59:22.388Z,82.45
2023-08-07T10:01:52.413Z,83.14
2023-08-07T10:04:24.377Z,83.13
2023-08-07T10:06:53.783Z,82.78
2023-08-07T10:09:22.408Z,82.82
2023-08-07T10:11:52.661Z,83.16
2023-08-07T10:14:23.521Z,83.00
2023-08-07T10:16:53.481Z,82.18
2023-08-07T10:19:23.760Z,82.18
2023-08-07T10:21:54.757Z,81.35
2023-08-07T10:24:26.155Z,80.46
2023-08-07T10:26:56.418Z,80.30
2023-08-07T10:29:27.087Z,79.67
2023-08-07T10:31:59.551Z,79.58
2023-08-07T10:34:33.626Z,78.50
2023-08-07T10:37:07.436Z,78.15
2023-08-07T10:39:36.241Z,78.05
2023-08-07T10:42:06.957Z,78.41
2023-08-07T10:44:35.256Z,78.47
2023-08-07T10:47:04.095Z,78.11
2023-08-07T10:49:40.126Z,77.89
2023-08-07T10:52:17.653Z,77.87
2023-08-07T10:54:50.163Z,77.66
2023-08-07T10:57:21.445Z,77.76
2023-08-07T11:00:09.728Z,78.11
2023-08-07T11:02:43.126Z,77.71
2023-08-07T11:05:14.938Z,78.01
2023-08-07T11:07:48.481Z,77.37
2023-08-07T11:10:18.474Z,77.44
2023-08-07T11:12:49.759Z,77.79
2023-08-07T11:15:19.218Z,77.39
2023-08-07T11:17:50.283Z,77.61
2023-08-07T11:20:19.443Z,77.31
2023-08-07T11:22:50.427Z,77.56
2023-08-07T11:25:20.928Z,77.66
2023-08-07T11:27:50.558Z,77.51
2023-08-07T11:30:18.177Z,77.87
2023-08-07T11:32:48.663Z,76.72
2023-08-07T11:35:19.551Z,75.98
2023-08-07T11:37:51.810Z,76.13
2023-08-07T11:40:20.480Z,74.92
2023-08-07T11:42:48.531Z,75.52
2023-08-07T11:45:16.532Z,75.64
2023-08-07T11:47:44.752Z,75.55
2023-08-07T11:50:13.038Z,75.02
2023-08-07T11:52:41.898Z,75.23
2023-08-07T11:55:16.493Z,74.97
2023-08-07T11:57:47.975Z,74.56
2023-08-07T12:00:18.996Z,75.04
2023-08-07T12:02:47.734Z,75.33
2023-08-07T12:05:18.340Z,75.52
2023-08-07T12:07:51.041Z,76.06
2023-08-07T12:10:18.994Z,75.78
2023-08-07T12:12:47.630Z,74.76
2023-08-07T12:15:19.402Z,75.15
2023-08-07T12:17:48.254Z,74.69
2023-08-07T12:20:18.330Z,74.74
2023-08-07T12:22:47.143Z,75.20
2023-08-07T12:25:16.529Z,74.73
2023-08-07T12:27:49.374Z,74.71
2023-08-07T12:30:18.358Z,75.12
2023-08-07T12:32:49.974Z,74.95
2023-08-07T12:35:18.548Z,75.22
2023-08-07T12:37:47.070Z,76.53
2023-08-07T12:42:49.557Z,76.97
2023-08-07T12:45:51.741Z,77.00
2023-08-07T12:48:11.340Z,77.11
2023-08-07T12:50:42.288Z,78.57
2023-08-07T12:53:10.787Z,79.74
2023-08-07T12:55:44.251Z,79.57
2023-08-07T12:58:13.205Z,80.16
2023-08-07T13:00:40.795Z,79.54
2023-08-07T13:03:08.438Z,80.20
2023-08-07T13:05:38.542Z,81.76
2023-08-07T13:08:08.405Z,82.72
2023-08-07T13:10:38.030Z,83.04
2023-08-07T13:13:07.910Z,82.88
2023-08-07T13:15:39.832Z,82.29
2023-08-07T13:18:08.187Z,82.13
2023-08-07T13:20:36.035Z,82.37
2023-08-07T13:23:07.523Z,82.39
2023-08-07T13:25:38.862Z,81.76
2023-08-07T13:28:08.006Z,82.47
2023-08-07T13:30:37.680Z,82.39
2023-08-07T13:33:05.968Z,81.55
2023-08-07T13:35:39.108Z,80.46
2023-08-07T13:38:09.281Z,80.87
2023-08-07T13:40:39.259Z,80.28
2023-08-07T13:43:10.785Z,80.55
2023-08-07T13:45:39.560Z,80.48
2023-08-07T13:48:11.163Z,80.33
2023-08-07T13:50:42.337Z,80.13
2023-08-07T13:53:14.927Z,79.98
2023-08-07T13:55:52.988Z,79.99
2023-08-07T13:58:22.225Z,79.33
2023-08-07T14:00:50.465Z,78.44
2023-08-07T14:03:26.359Z,78.63
2023-08-07T14:05:55.239Z,78.70
2023-08-07T14:08:23.524Z,78.26
2023-08-07T14:10:51.875Z,78.07
2023-08-07T14:13:19.641Z,77.80
2023-08-07T14:15:48.124Z,77.58
2023-08-07T14:18:18.030Z,77.26
2023-08-07T14:21:01.318Z,76.93
2023-08-07T14:23:34.669Z,76.65
2023-08-07T14:26:06.460Z,76.23
2023-08-07T14:28:34.348Z,75.81
2023-08-07T14:31:02.469Z,76.16
2023-08-07T14:33:30.616Z,76.21
2023-08-07T14:35:59.235Z,76.29
2023-08-07T14:38:26.822Z,75.80
2023-08-07T14:40:54.643Z,75.87
2023-08-07T14:43:23.797Z,75.68
2023-08-07T14:45:52.093Z,75.81
2023-08-07T14:48:21.265Z,76.00
2023-08-07T14:50:50.937Z,75.91
2023-08-07T14:53:18.690Z,75.97
2023-08-07T14:55:49.854Z,75.76
2023-08-07T14:58:20.590Z,74.61
2023-08-07T15:00:50.507Z,74.69
2023-08-07T15:03:18.140Z,74.52
2023-08-07T15:05:47.302Z,73.53
2023-08-07T15:08:17.441Z,71.86
2023-08-07T15:10:46.824Z,72.31
2023-08-07T15:13:19.018Z,71.70
2023-08-07T15:15:48.246Z,71.84
2023-08-07T15:18:18.121Z,71.85
2023-08-07T15:20:50.131Z,72.03
2023-08-07T15:23:19.157Z,72.23
2023-08-07T15:25:46.772Z,71.67
2023-08-07T15:28:14.783Z,72.12
2023-08-07T15:30:53.203Z,72.22
2023-08-07T15:33:23.577Z,72.75
2023-08-07T15:35:56.683Z,72.02
2023-08-07T15:38:27.573Z,71.96
2023-08-07T15:40:55.366Z,71.94
2023-08-07T15:43:24.537Z,71.14
2023-08-07T15:45:54.302Z,71.10
2023-08-07T15:48:24.379Z,70.89
2023-08-07T15:50:52.805Z,70.92
2023-08-07T15:53:20.706Z,69.54
2023-08-07T15:55:50.761Z,68.85
2023-08-07T15:58:19.383Z,68.91
2023-08-07T16:00:52.431Z,68.76
2023-08-07T16:03:23.285Z,68.64
2023-08-07T16:05:51.550Z,68.49
2023-08-07T16:08:20.035Z,68.31
2023-08-07T16:10:48.101Z,68.05
2023-08-07T16:13:16.997Z,68.07
2023-08-07T16:15:46.286Z,68.12
2023-08-07T16:18:19.225Z,68.20
2023-08-07T16:20:51.963Z,67.27
2023-08-07T16:23:19.935Z,66.46
2023-08-07T16:25:49.239Z,66.84
2023-08-07T16:28:17.249Z,65.73
2023-08-07T16:30:44.832Z,62.91
2023-08-07T16:33:13.727Z,62.66
2023-08-07T16:35:42.603Z,61.50
2023-08-07T16:38:10.509Z,60.57
2023-08-07T16:40:39.491Z,60.24
2023-08-07T16:43:08.273Z,59.37
2023-08-07T16:45:36.615Z,59.12
2023-08-07T16:48:04.938Z,58.62
2023-08-07T16:50:33.556Z,60.11
2023-08-07T16:53:02.148Z,60.16
2023-08-07T16:55:34.431Z,59.89
2023-08-07T16:58:02.471Z,60.29
2023-08-07T17:00:31.540Z,60.08
2023-08-07T17:02:59.676Z,60.05
2023-08-07T17:05:30.563Z,60.18
2023-08-07T17:07:59.836Z,60.88
2023-08-07T17:10:28.360Z,60.73
2023-08-07T17:12:59.958Z,60.47
2023-08-07T17:15:28.860Z,60.23
2023-08-07T17:17:56.568Z,60.31
2023-08-07T17:20:27.101Z,59.56
2023-08-07T17:22:55.710Z,60.70
2023-08-07T17:25:24.336Z,60.49
2023-08-07T17:27:51.969Z,61.11
2023-08-07T17:30:19.804Z,60.99
2023-08-07T17:32:48.680Z,62.08
2023-08-07T17:35:17.748Z,63.12
2023-08-07T17:37:46.464Z,63.48
2023-08-07T17:40:16.900Z,63.86
2023-08-07T17:42:44.598Z,64.40
2023-08-07T17:45:13.644Z,64.73
2023-08-07T17:47:43.834Z,65.20
2023-08-07T17:50:11.465Z,65.98
2023-08-07T17:52:40.798Z,66.44
2023-08-07T17:55:13.261Z,66.89
2023-08-07T17:57:43.408Z,67.62
2023-08-07T18:00:20.556Z,68.20
2023-08-07T18:02:52.318Z,68.66
2023-08-07T18:05:20.550Z,68.82
2023-08-07T18:07:48.120Z,69.33
2023-08-07T18:10:17.274Z,69.35
2023-08-07T18:12:53.044Z,69.71
2023-08-07T18:15:25.006Z,69.80
2023-08-07T18:17:52.817Z,70.17
2023-08-07T18:20:21.433Z,70.42
2023-08-07T18:22:50.654Z,70.87
2023-08-07T18:25:19.298Z,71.10
2023-08-07T18:27:50.508Z,71.23
2023-08-07T18:30:20.828Z,71.53
2023-08-07T18:32:55.162Z,71.66
2023-08-07T18:35:25.797Z,72.08
2023-08-07T18:37:53.984Z,72.62
2023-08-07T18:40:21.614Z,72.84
2023-08-07T18:42:49.170Z,73.29
2023-08-07T18:45:18.423Z,73.70
2023-08-07T18:47:46.235Z,74.19
2023-08-07T18:50:14.029Z,74.65
2023-08-07T18:52:42.157Z,75.00
2023-08-07T18:55:10.037Z,75.14
2023-08-07T18:57:42.664Z,75.64
2023-08-07T19:00:12.418Z,75.67
2023-08-07T19:02:42.294Z,75.85
2023-08-07T19:05:10.669Z,76.15
2023-08-07T19:07:38.579Z,75.64
2023-08-07T19:10:09.476Z,75.34
2023-08-07T19:12:41.926Z,75.26
2023-08-07T19:15:14.003Z,75.55
2023-08-07T19:17:41.708Z,75.46
2023-08-07T19:20:12.088Z,75.65
2023-08-07T19:22:40.487Z,75.95
2023-08-07T19:25:14.053Z,76.36
2023-08-07T19:27:44.645Z,76.83
2023-08-07T19:30:13.601Z,77.09
2023-08-07T19:32:42.448Z,77.39
2023-08-07T19:35:11.300Z,77.37
2023-08-07T19:37:39.682Z,77.53
2023-08-07T19:40:10.199Z,77.77
2023-08-07T19:42:38.097Z,78.00
2023-08-07T19:45:06.287Z,78.27
2023-08-07T19:47:36.575Z,78.43
2023-08-07T19:50:08.117Z,78.68
2023-08-07T19:52:35.677Z,79.02
2023-08-07T19:55:12.802Z,79.26
2023-08-07T19:57:43.168Z,79.11
2023-08-07T20:00:12.518Z,79.73
2023-08-07T20:02:42.000Z,79.77
2023-08-07T20:05:10.384Z,80.54
2023-08-07T20:07:39.414Z,80.23
2023-08-07T20:10:11.341Z,80.37
2023-08-07T20:12:41.630Z,80.29
2023-08-07T20:15:10.544Z,80.38
2023-08-07T20:17:38.074Z,79.92
2023-08-07T20:20:07.152Z,80.15
2023-08-07T20:22:37.350Z,80.19
2023-08-07T20:25:05.992Z,79.31
2023-08-07T20:27:33.792Z,78.55
2023-08-07T20:30:04.704Z,74.33
2023-08-07T20:32:33.471Z,73.60
2023-08-07T20:35:03.180Z,71.88
2023-08-07T20:37:32.381Z,72.62
2023-08-07T20:40:00.151Z,73.56
2023-08-07T20:42:30.278Z,74.35
2023-08-07T20:44:58.164Z,74.23
2023-08-07T20:47:25.757Z,73.83
2023-08-07T20:49:53.821Z,72.90
2023-08-07T20:52:23.297Z,72.71
2023-08-07T20:54:51.731Z,72.32
2023-08-07T20:57:22.311Z,72.65
2023-08-07T20:59:53.530Z,72.68
2023-08-07T21:02:25.251Z,73.29
2023-08-07T21:04:53.509Z,73.80
2023-08-07T21:07:21.597Z,74.39
2023-08-07T21:09:52.027Z,74.65
2023-08-07T21:12:20.377Z,74.64
2023-08-07T21:14:47.955Z,74.91
2023-08-07T21:17:16.479Z,75.00
2023-08-07T21:19:44.511Z,74.75
2023-08-07T21:22:12.205Z,75.21
2023-08-07T21:24:40.951Z,75.65
2023-08-07T21:27:12.680Z,76.19
2023-08-07T21:29:42.138Z,76.51
2023-08-07T21:32:12.973Z,76.98
2023-08-07T21:34:41.151Z,77.45
2023-08-07T21:37:09.556Z,78.27
2023-08-07T21:39:39.479Z,78.34
2023-08-07T21:42:08.095Z,78.76
2023-08-07T21:44:41.248Z,79.74
2023-08-07T21:47:10.103Z,80.78
2023-08-07T21:49:41.440Z,80.89
2023-08-07T21:52:10.358Z,80.87
2023-08-07T21:54:39.257Z,81.15
2023-08-07T21:57:07.438Z,81.56
2023-08-07T21:59:37.111Z,81.47
2023-08-07T22:02:13.264Z,82.42
2023-08-07T22:04:41.288Z,82.58
2023-08-07T22:07:08.826Z,82.94
2023-08-07T22:09:37.720Z,83.32
2023-08-07T22:12:06.439Z,83.42
2023-08-07T22:14:34.145Z,83.82
2023-08-07T22:17:01.883Z,84.26
2023-08-07T22:19:29.604Z,84.33
2023-08-07T22:22:00.183Z,84.86
2023-08-07T22:24:28.127Z,84.86
2023-08-07T22:26:56.430Z,85.19
2023-08-07T22:29:24.149Z,85.05
2023-08-07T22:31:52.455Z,84.96
2023-08-07T22:34:20.084Z,85.00
2023-08-07T22:36:50.303Z,85.08
2023-08-07T22:39:19.255Z,84.83
2023-08-07T22:41:48.815Z,84.08
2023-08-07T22:44:17.328Z,84.32
2023-08-07T22:46:48.438Z,84.13
2023-08-07T22:49:21.402Z,83.77
2023-08-07T22:51:51.140Z,84.03
2023-08-07T22:54:19.780Z,84.25
2023-08-07T22:56:47.874Z,84.28
2023-08-07T22:59:16.514Z,84.40
2023-08-07T23:01:46.832Z,84.58
2023-08-07T23:04:16.877Z,85.05
2023-08-07T23:06:46.144Z,84.89
2023-08-07T23:09:15.778Z,84.93
2023-08-07T23:11:43.656Z,84.91
2023-08-07T23:14:12.654Z,84.96
2023-08-07T23:16:41.358Z,84.10
2023-08-07T23:19:11.353Z,84.61
2023-08-07T23:21:40.092Z,84.07
2023-08-07T23:24:07.734Z,84.05
2023-08-07T23:26:37.065Z,83.33
2023-08-07T23:29:06.246Z,83.11
2023-08-07T23:31:34.149Z,83.20
2023-08-07T23:34:02.188Z,82.71
2023-08-07T23:36:31.186Z,82.92
2023-08-07T23:38:59.966Z,83.64
2023-08-07T23:41:29.164Z,83.58
2023-08-07T23:43:56.927Z,83.58
2023-08-07T23:49:09.194Z,83.37
2023-08-07T23:51:37.039Z,82.64
2023-08-07T23:54:05.646Z,82.50
2023-08-07T23:56:33.464Z,81.69
2023-08-07T23:59:01.178Z,81.58
